< < Back
Terminal Aerodrome Forecast


Current Version              Previous Versions:   1  2  3  4  5  6  7  8  9  

Terminal Aerodrome Forecast

195
FTUS42 KFFC 171120
TAFFTY
TAF
KFTY 171120Z 1712/1812 31005KT P6SM SKC
     FM171400 31009KT P6SM SKC
     FM180000 31007KT P6SM SCT250=

Latest METAR

754
SAUS70 KWBC 171900 RRD
MTRFTY
METAR KFTY 171853Z 28008KT 10SM OVC018 07/02 A3018 RMK AO2 SLP221
T00720022


USA.gov is the U.S. government's official web portal to all federal, state and local government web resources and services.